• Join FlightAware (Why Join?)
  • Login
  • US Flag 
11:40AM EST


 

Airport Tracker/Info


-or-


 

Live Flight TrackerFlight Track Log ✈ TAM3750 ✈ 19-Sep-2013 ✈ SBGR / GRU - SBEG / MAO

Flight Track Log - Related Links

Times and Time Zones

All times are in EDT time to prevent confusion due to time zone crossing. See the TAM3750 flight status page for this flight to view local times or setup timezone preferences in your user account.

Time Position Orientation Groundspeed Altitude Reporting Facility
EDT Latitude Longitude Course Direction KTS MPH feet Rate Location/Type
08:38PM -23.4200 -46.4320 73° East 169 194 3,700  Level FlightAware
08:38PM -23.4200 -46.4230 90° East 173 199 4,000 1,140 Climbing FlightAware
08:38PM -23.4220 -46.4150 105° East 180 207 4,100 720 Climbing FlightAware
08:38PM -23.4240 -46.4130 137° Southeast 183 211 4,200 1,200 Climbing FlightAware
08:38PM -23.4330 -46.4070 149° Southeast 189 217 4,400 1,260 Climbing FlightAware
08:38PM -23.4370 -46.4060 167° South 183 211 4,500 600 Climbing FlightAware
08:39PM -23.4410 -46.4060 180° South 193 222 4,600 1,380 Climbing FlightAware
08:39PM -23.4670 -46.4260 215° Southwest 207 238 5,400 1,620 Climbing FlightAware
08:39PM -23.4790 -46.4450 235° Southwest 219 252 5,800 1,080 Climbing FlightAware
08:40PM -23.4860 -46.4570 238° Southwest 228 262 6,000 780 Climbing FlightAware
08:40PM -23.5010 -46.4810 236° Southwest 249 287 6,300 780 Climbing FlightAware
08:40PM -23.5100 -46.4930 231° Southwest 258 297 6,500 1,260 Climbing FlightAware
08:41PM -23.5250 -46.5140 232° Southwest 271 312 7,000 1,500 Climbing FlightAware
08:41PM -23.5450 -46.5410 231° Southwest 285 328 7,600 1,740 Climbing FlightAware
08:41PM -23.5610 -46.5630 232° Southwest 286 329 8,300 2,400 Climbing FlightAware
08:42PM -23.5780 -46.5860 231° Southwest 282 325 9,200 2,460 Climbing FlightAware
08:42PM -23.5900 -46.6040 234° Southwest 282 325 9,800 1,980 Climbing FlightAware
08:42PM -23.5930 -46.6100 241° Southwest 283 326 9,900 1,620 Climbing FlightAware
08:42PM -23.5950 -46.6180 255° West 285 328 10,100 1,500 Climbing FlightAware
08:42PM -23.5960 -46.6270 263° West 287 330 10,200 1,380 Climbing FlightAware
08:43PM -23.5920 -46.6550 279° West 299 344 10,700 1,080 Climbing FlightAware
08:43PM -23.5840 -46.7190 278° West 328 377 11,300 900 Climbing FlightAware
08:44PM -23.5780 -46.7690 277° West 349 402 11,800 1,260 Climbing FlightAware
08:44PM -23.5710 -46.8340 277° West 363 418 12,700 1,680 Climbing FlightAware
08:45PM -23.5620 -46.9060 278° West 367 422 13,900 1,680 Climbing FlightAware
08:45PM -23.5560 -46.9630 277° West 374 430 14,700 1,620 Climbing FlightAware
08:46PM -23.5470 -47.0380 277° West 382 440 15,800 1,860 Climbing FlightAware
08:47PM -23.5410 -47.0960 276° West 381 438 16,900 2,040 Climbing FlightAware
08:47PM -23.5280 -47.1400 288° West 378 435 17,700 1,500 Climbing FlightAware
08:48PM -23.4980 -47.1880 304° West 384 442 18,300 1,260 Climbing FlightAware
08:48PM -23.4540 -47.2620 303° West 386 444 19,300 1,260 Climbing FlightAware
08:49PM -23.4180 -47.3200 304° West 392 451 20,000 1,200 Climbing FlightAware
08:49PM -23.3830 -47.3780 303° West 394 453 20,700 1,320 Climbing FlightAware
08:50PM -23.3470 -47.4370 304° West 393 452 21,600 1,260 Climbing FlightAware
08:51PM -23.3120 -47.4950 303° West 397 457 22,200 900 Climbing FlightAware
08:51PM -23.2760 -47.5550 303° West 405 466 22,700 960 Climbing FlightAware
08:52PM -23.2380 -47.6150 305° West 406 467 23,400 1,080 Climbing FlightAware
08:52PM -23.2010 -47.6760 303° West 407 468 24,000 900 Climbing FlightAware
08:53PM -23.1650 -47.7350 304° West 409 471 24,500 840 Climbing FlightAware
08:54PM -23.1280 -47.7960 303° West 413 475 25,000 720 Climbing FlightAware
08:54PM -23.0920 -47.8540 304° West 417 480 25,400 660 Climbing FlightAware
08:55PM -23.0530 -47.9180 304° West 416 479 25,800 660 Climbing FlightAware
08:55PM -23.0150 -47.9790 304° West 418 481 26,200 660 Climbing FlightAware
08:56PM -22.9770 -48.0420 303° West 421 484 26,600 660 Climbing FlightAware
08:56PM -22.9390 -48.1030 304° West 424 488 27,000 660 Climbing FlightAware
08:57PM -22.9020 -48.1620 304° West 425 489 27,400 660 Climbing FlightAware
08:58PM -22.8620 -48.2270 304° West 432 497 27,800 720 Climbing FlightAware
08:58PM -22.8220 -48.2920 304° West 431 496 28,300 780 Climbing FlightAware
08:59PM -22.7800 -48.3610 303° West 431 496 28,800 780 Climbing FlightAware
08:59PM -22.7450 -48.4170 304° West 431 496 29,200 780 Climbing FlightAware
09:00PM -22.7060 -48.4790 304° West 431 496 29,700 780 Climbing FlightAware
09:01PM -22.6660 -48.5430 304° West 428 493 30,200 720 Climbing FlightAware
09:01PM -22.6240 -48.6110 304° West 429 494 30,600 600 Climbing FlightAware
09:02PM -22.5900 -48.6670 303° West 430 495 30,900 660 Climbing FlightAware
09:02PM -22.5470 -48.7350 304° West 425 489 31,400 600 Climbing FlightAware
09:03PM -22.5090 -48.7950 304° West 427 491 31,700 480 Climbing FlightAware
09:03PM -22.4720 -48.8550 304° West 427 491 32,000 240 Climbing FlightAware
09:04PM -22.4320 -48.9190 304° West 432 497 32,000  Level FlightAware
09:05PM -22.3910 -48.9840 304° West 434 499 32,000  Level FlightAware
09:05PM -22.3580 -49.0370 304° West 432 497 32,000  Level FlightAware
09:06PM -22.3130 -49.1050 306° West 438 504 32,000  Level FlightAware
09:06PM -22.2630 -49.1640 312° West 446 513 32,000  Level FlightAware
09:07PM -22.2120 -49.2210 314° West 448 516 32,000 60 Level FlightAware
09:08PM -22.1600 -49.2790 314° West 446 513 32,100  Climbing FlightAware
09:08PM -22.1140 -49.3310 314° West 446 513 32,000 -120 Descending FlightAware
09:09PM -22.0630 -49.3870 314° West 444 511 32,000  Level FlightAware
09:09PM -22.0110 -49.4450 314° West 442 509 32,000  Level FlightAware
09:10PM -21.9590 -49.5030 314° West 440 506 32,000  Level FlightAware
09:10PM -21.9140 -49.5530 314° West 439 505 32,000  Level FlightAware
09:11PM -21.8610 -49.6120 314° West 439 505 32,000  Level FlightAware
09:12PM -21.8110 -49.6680 314° West 439 505 32,000  Level FlightAware
09:12PM -21.7590 -49.7260 314° West 440 506 32,000  Level FlightAware
09:13PM -21.7140 -49.7760 314° West 439 505 32,000  Level FlightAware
09:13PM -21.6630 -49.8320 314° West 440 506 32,000  Level FlightAware
09:14PM -21.6110 -49.8890 314° West 441 507 32,000  Level FlightAware
09:15PM -21.5650 -49.9390 315° West 441 507 32,000  Level FlightAware
09:15PM -21.5140 -49.9960 314° West 441 507 32,000  Level FlightAware
09:16PM -21.4640 -50.0510 314° West 441 507 32,000  Level FlightAware
09:16PM -21.4120 -50.1090 314° West 442 509 32,000  Level FlightAware
09:17PM -21.3600 -50.1670 314° West 441 507 32,000  Level FlightAware
09:17PM -21.3160 -50.2160 314° West 442 509 32,000  Level FlightAware
09:18PM -21.2640 -50.2740 314° West 442 509 32,000  Level FlightAware
09:19PM -21.2190 -50.3240 314° West 442 509 32,000  Level FlightAware
09:19PM -21.1670 -50.3820 314° West 444 511 32,000  Level FlightAware
09:20PM -21.1160 -50.4370 315° West 444 511 32,000  Level FlightAware
09:20PM -21.0670 -50.4910 314° West 445 512 32,000  Level FlightAware
09:21PM -21.0160 -50.5480 314° West 446 513 32,000  Level FlightAware
09:22PM -20.9630 -50.6060 314° West 447 514 32,000  Level FlightAware
09:22PM -20.9110 -50.6640 314° West 448 516 32,000  Level FlightAware
09:23PM -20.8680 -50.7110 314° West 449 517 32,000  Level FlightAware
09:23PM -20.8120 -50.7720 314° West 449 517 32,000  Level FlightAware
09:24PM -20.7500 -50.8380 315° West 450 518 32,000  Level FlightAware
09:25PM -20.7020 -50.8890 315° West 450 518 32,000  Level FlightAware
09:25PM -20.6380 -50.9570 315° West 450 518 32,000  Level FlightAware
09:26PM -20.5940 -51.0050 314° West 450 518 32,000  Level FlightAware
09:26PM -20.5460 -51.0550 316° Northwest 451 519 32,000  Level FlightAware
09:27PM -20.4830 -51.1230 315° West 452 520 32,000  Level FlightAware
09:28PM -20.4390 -51.1700 315° West 453 521 32,000  Level FlightAware
09:28PM -20.3840 -51.2250 317° Northwest 455 524 32,000  Level FlightAware
09:29PM -20.3390 -51.2570 326° Northwest 464 534 32,000  Level FlightAware
09:29PM -20.2740 -51.2940 332° Northwest 465 535 32,000  Level FlightAware
09:30PM -20.2100 -51.3310 332° Northwest 464 534 32,000  Level FlightAware
09:30PM -20.1440 -51.3690 332° Northwest 465 535 32,000  Level FlightAware
09:31PM -20.0850 -51.4040 331° Northwest 465 535 32,000  Level FlightAware
09:32PM -20.0120 -51.4430 333° Northwest 468 539 32,000  Level FlightAware
09:32PM -19.9380 -51.4850 332° Northwest 468 539 32,000  Level FlightAware
09:33PM -19.8720 -51.5230 332° Northwest 469 540 32,000  Level FlightAware
09:33PM -19.8100 -51.5580 332° Northwest 470 541 32,000  Level FlightAware
09:34PM -19.7390 -51.5990 331° Northwest 470 541 32,000  Level FlightAware
09:34PM -19.6750 -51.6340 333° Northwest 471 542 32,000  Level FlightAware
09:35PM -19.5930 -51.6810 332° Northwest 471 542 32,000  Level FlightAware
09:36PM -19.5340 -51.7140 332° Northwest 471 542 32,000  Level FlightAware
09:36PM -19.4730 -51.7480 332° Northwest 471 542 32,000  Level FlightAware
09:37PM -19.3980 -51.7910 332° Northwest 471 542 32,000  Level FlightAware
09:38PM -19.3390 -51.8240 332° Northwest 471 542 32,000  Level FlightAware
09:38PM -19.2800 -51.8570 332° Northwest 471 542 32,000  Level FlightAware
09:39PM -19.1350 -51.9390 332° Northwest 473 544 32,000  Level FlightAware
09:40PM -19.0700 -51.9760 332° Northwest 473 544 32,000  Level FlightAware
09:40PM -18.9960 -52.0160 333° Northwest 476 548 32,000  Level FlightAware
09:41PM -18.9080 -52.0660 332° Northwest 479 551 32,000  Level FlightAware
09:42PM -18.8380 -52.1050 332° Northwest 482 555 32,000  Level FlightAware
09:42PM -18.7680 -52.1440 332° Northwest 484 557 32,000  Level FlightAware
09:43PM -18.6950 -52.1850 332° Northwest 486 559 32,000  Level FlightAware
09:43PM -18.6270 -52.2230 332° Northwest 486 559 32,000  Level FlightAware
09:44PM -18.5740 -52.2540 331° Northwest 487 560 32,000  Level FlightAware
09:45PM -18.4920 -52.3020 331° Northwest 487 560 32,000  Level FlightAware
09:45PM -18.4050 -52.3460 334° Northwest 484 557 32,000  Level FlightAware
09:46PM -18.3370 -52.3840 332° Northwest 483 556 32,000  Level FlightAware
09:46PM -18.2740 -52.4190 332° Northwest 483 556 32,000  Level FlightAware
09:47PM -18.2130 -52.4530 332° Northwest 483 556 32,000  Level FlightAware
09:47PM -18.1430 -52.4830 338° Northwest 488 562 32,000  Level FlightAware
09:48PM -18.0730 -52.5010 346° North 488 562 32,000  Level FlightAware
09:49PM -18.0060 -52.5190 346° North 488 562 32,000  Level FlightAware
09:49PM -17.9390 -52.5360 346° North 488 562 32,000  Level FlightAware
09:50PM -17.8720 -52.5540 346° North 488 562 32,000  Level FlightAware
09:50PM -17.8050 -52.5720 346° North 488 562 32,000  Level FlightAware
09:51PM -17.7380 -52.5890 346° North 488 562 32,000  Level FlightAware
09:52PM -17.6700 -52.6070 346° North 488 562 32,000  Level FlightAware
09:52PM -17.6030 -52.6240 346° North 488 562 32,000  Level FlightAware
09:53PM -17.5360 -52.6420 346° North 488 562 32,000  Level FlightAware
09:53PM -17.4690 -52.6590 346° North 488 562 32,000  Level FlightAware
09:54PM -17.4020 -52.6770 346° North 488 562 32,000  Level FlightAware
09:55PM -17.3330 -52.6950 346° North 488 562 32,000  Level FlightAware
09:55PM -17.2660 -52.7120 346° North 488 562 32,000  Level FlightAware
09:56PM -17.1990 -52.7300 346° North 488 562 32,000  Level FlightAware
09:56PM -17.1320 -52.7470 346° North 488 562 32,000  Level FlightAware
09:57PM -17.0650 -52.7650 346° North 488 562 32,000 -240 Level FlightAware
10:00PM -16.8333 -52.8927 332° Northwest  Level Estimated
10:01PM -16.7400 -52.9440 332° Northwest  Level Estimated
10:02PM -16.6466 -52.9953 332° Northwest  Level Estimated
10:03PM -16.5533 -53.0465 332° Northwest  Level Estimated
10:04PM -16.4599 -53.0977 332° Northwest  Level Estimated
10:05PM -16.3665 -53.1488 332° Northwest  Level Estimated
10:06PM -16.2731 -53.1999 332° Northwest  Level Estimated
10:07PM -16.1797 -53.2510 332° Northwest  Level Estimated
10:08PM -16.0863 -53.3020 332° Northwest  Level Estimated
10:09PM -15.9929 -53.3529 332° Northwest  Level Estimated
10:10PM -15.8994 -53.4038 332° Northwest  Level Estimated
10:11PM -15.8060 -53.4547 332° Northwest  Level Estimated
10:12PM -15.7125 -53.5055 332° Northwest  Level Estimated
10:13PM -15.6191 -53.5562 332° Northwest  Level Estimated
10:14PM -15.5256 -53.6069 332° Northwest  Level Estimated
10:15PM -15.4321 -53.6576 332° Northwest  Level Estimated
10:16PM -15.3385 -53.7082 332° Northwest  Level Estimated
10:17PM -15.2450 -53.7588 332° Northwest  Level Estimated
10:18PM -15.1515 -53.8093 332° Northwest  Level Estimated
10:19PM -15.0580 -53.8597 332° Northwest  Level Estimated
10:20PM -14.9644 -53.9102 332° Northwest  Level Estimated
10:21PM -14.8708 -53.9606 333° Northwest  Level Estimated
10:22PM -14.7773 -54.0109 333° Northwest  Level Estimated
10:23PM -14.6837 -54.0612 333° Northwest  Level Estimated
10:24PM -14.5901 -54.1115 333° Northwest  Level Estimated
10:25PM -14.4965 -54.1617 333° Northwest  Level Estimated
10:26PM -14.4028 -54.2119 333° Northwest  Level Estimated
10:27PM -14.3092 -54.2620 333° Northwest  Level Estimated
10:28PM -14.2156 -54.3121 333° Northwest  Level Estimated
10:29PM -14.1219 -54.3622 333° Northwest  Level Estimated
10:30PM -14.0282 -54.4122 333° Northwest  Level Estimated
10:31PM -13.9346 -54.4621 333° Northwest  Level Estimated
10:32PM -13.8409 -54.5121 333° Northwest  Level Estimated
10:33PM -13.7472 -54.5620 333° Northwest  Level Estimated
10:34PM -13.6535 -54.6118 333° Northwest  Level Estimated
10:35PM -13.5598 -54.6616 333° Northwest  Level Estimated
10:36PM -13.4661 -54.7114 333° Northwest  Level Estimated
10:37PM -13.3723 -54.7611 333° Northwest  Level Estimated
10:38PM -13.2786 -54.8108 333° Northwest  Level Estimated
10:39PM -13.1849 -54.8605 333° Northwest  Level Estimated
10:40PM -13.0911 -54.9101 333° Northwest  Level Estimated
10:41PM -12.9973 -54.9596 333° Northwest  Level Estimated
10:42PM -12.9036 -55.0092 333° Northwest  Level Estimated
10:43PM -12.8098 -55.0587 333° Northwest  Level Estimated
10:44PM -12.7160 -55.1082 333° Northwest  Level Estimated
10:45PM -12.6222 -55.1576 333° Northwest  Level Estimated
10:46PM -12.5283 -55.2070 333° Northwest  Level Estimated
10:47PM -12.4345 -55.2563 333° Northwest  Level Estimated
10:48PM -12.3407 -55.3057 333° Northwest  Level Estimated
10:49PM -12.2468 -55.3549 333° Northwest  Level Estimated
10:50PM -12.1530 -55.4042 333° Northwest  Level Estimated
10:51PM -12.0591 -55.4534 333° Northwest  Level Estimated
10:52PM -11.9653 -55.5026 333° Northwest  Level Estimated
10:53PM -11.8714 -55.5518 333° Northwest  Level Estimated
10:54PM -11.7775 -55.6009 333° Northwest  Level Estimated
10:55PM -11.6836 -55.6499 333° Northwest  Level Estimated
10:56PM -11.5897 -55.6990 333° Northwest  Level Estimated
10:57PM -11.4958 -55.7480 333° Northwest  Level Estimated
10:58PM -11.4018 -55.7970 333° Northwest  Level Estimated
10:59PM -11.3079 -55.8459 333° Northwest  Level Estimated
11:00PM -11.2140 -55.8949 333° Northwest  Level Estimated
11:01PM -11.1200 -55.9437 333° Northwest  Level Estimated
11:02PM -11.0261 -55.9926 333° Northwest  Level Estimated
11:03PM -10.9321 -56.0414 333° Northwest  Level Estimated
11:04PM -10.8382 -56.0902 333° Northwest  Level Estimated
11:05PM -10.7442 -56.1390 333° Northwest  Level Estimated
11:06PM -10.6502 -56.1877 333° Northwest  Level Estimated
11:07PM -10.5562 -56.2364 333° Northwest  Level Estimated
11:08PM -10.4622 -56.2851 333° Northwest  Level Estimated
11:09PM -10.3682 -56.3337 333° Northwest  Level Estimated
11:10PM -10.2742 -56.3823 333° Northwest  Level Estimated
11:11PM -10.1802 -56.4309 333° Northwest  Level Estimated
11:12PM -10.0861 -56.4794 333° Northwest  Level Estimated
11:13PM -9.9921 -56.5280 333° Northwest  Level Estimated
11:14PM -9.8981 -56.5765 333° Northwest  Level Estimated
11:15PM -9.8040 -56.6249 333° Northwest  Level Estimated
11:16PM -9.7100 -56.6734 333° Northwest  Level Estimated
11:17PM -9.6159 -56.7218 333° Northwest  Level Estimated
11:18PM -9.5218 -56.7702 333° Northwest  Level Estimated
11:19PM -9.4278 -56.8186 333° Northwest  Level Estimated
11:20PM -9.3337 -56.8669 333° Northwest  Level Estimated
11:21PM -9.2396 -56.9152 333° Northwest  Level Estimated
11:22PM -9.1455 -56.9635 333° Northwest  Level Estimated
11:23PM -9.0514 -57.0117 333° Northwest  Level Estimated
11:24PM -8.9573 -57.0600 333° Northwest  Level Estimated
11:25PM -8.8632 -57.1082 333° Northwest  Level Estimated
11:26PM -8.7691 -57.1564 333° Northwest  Level Estimated
11:27PM -8.6749 -57.2045 333° Northwest  Level Estimated
11:28PM -8.5808 -57.2527 333° Northwest  Level Estimated
11:29PM -8.4867 -57.3008 333° Northwest  Level Estimated
11:30PM -8.3925 -57.3489 333° Northwest  Level Estimated
11:31PM -8.2984 -57.3969 333° Northwest  Level Estimated
11:32PM -8.2042 -57.4450 333° Northwest  Level Estimated
11:33PM -8.1101 -57.4930 333° Northwest  Level Estimated
11:34PM -8.0159 -57.5410 333° Northwest  Level Estimated
11:35PM -7.9217 -57.5890 333° Northwest  Level Estimated
11:36PM -7.8275 -57.6369 333° Northwest  Level Estimated
11:37PM -7.7333 -57.6848 333° Northwest  Level Estimated
11:38PM -7.6392 -57.7327 333° Northwest  Level Estimated
11:39PM -7.5450 -57.7806 333° Northwest  Level Estimated
11:40PM -7.4508 -57.8285 333° Northwest  Level Estimated
11:41PM -7.3566 -57.8764 333° Northwest  Level Estimated
11:42PM -7.2624 -57.9242 333° Northwest  Level Estimated
11:43PM -7.1681 -57.9720 333° Northwest  Level Estimated
11:44PM -7.0739 -58.0198 333° Northwest  Level Estimated
11:45PM -6.9797 -58.0676 333° Northwest  Level Estimated
11:46PM -6.8855 -58.1153 333° Northwest  Level Estimated
11:47PM -6.7913 -58.1630 333° Northwest  Level Estimated
11:48PM -6.6970 -58.2107 333° Northwest  Level Estimated
11:49PM -6.6028 -58.2584 333° Northwest  Level Estimated
11:50PM -6.5085 -58.3061 333° Northwest  Level Estimated
11:51PM -6.4143 -58.3537 333° Northwest  Level Estimated
11:52PM -6.3200 -58.4014 333° Northwest  Level Estimated
11:53PM -6.2257 -58.4490 333° Northwest  Level Estimated
11:54PM -6.1315 -58.4966 333° Northwest  Level Estimated
11:55PM -6.0372 -58.5442 333° Northwest  Level Estimated
11:56PM -5.9429 -58.5918 333° Northwest  Level Estimated
11:56PM -3.3910 -60.0980 333° Northwest 287 330 6,100  Level FlightAware
11:57PM -5.8487 -58.6393 333° Northwest  Level Estimated
11:57PM -3.3670 -60.1040 346° North 287 330 5,600  Level FlightAware
11:57PM -3.3370 -60.1110 347° North 285 328 5,000 -1,680 Descending FlightAware
11:57PM -3.3160 -60.1150 349° North 283 326 4,600 -1,380 Descending FlightAware
11:58PM -3.2910 -60.1210 347° North 280 322 4,200 -1,200 Descending FlightAware
11:58PM -3.2800 -60.1240 345° North 278 320 4,000 -840 Descending FlightAware
11:58PM -3.2550 -60.1290 349° North 276 318 3,800 -840 Descending FlightAware
11:59PM -3.2220 -60.1350 350° North 274 315 3,400 -840 Descending FlightAware
11:59PM -3.2070 -60.1360 356° North 273 314 3,300 -840 Descending FlightAware
11:59PM -3.1750 -60.1390 355° North 273 314 2,900 -1,080 Descending FlightAware
12:00AM -3.1490 -60.1420 353° North 270 311 2,500 -960 Descending FlightAware
12:00AM -3.1350 -60.1440 352° North 266 306 2,400 -180 Descending FlightAware
12:00AM -3.1070 -60.1470 354° North 243 280 2,400 -180 Level FlightAware
12:01AM -3.0850 -60.1490 355° North 226 260 2,300 -300 Descending FlightAware
12:01AM -3.0610 -60.1390 23° Northeast 190 219 2,200 -540 Descending FlightAware
12:01AM -3.0470 -60.1300 33° Northeast 170 196 1,900 -1,080 Descending FlightAware
12:01AM -3.0430 -60.1260 45° Northeast 166 191 1,700 -1,920 Descending FlightAware
12:02AM -3.0390 -60.1200 56° Northeast 161 185 1,400 -2,220 Descending FlightAware
12:02AM -3.0390 -60.1180 90° East 160 184 1,300 -1,020 Descending FlightAware
12:02AM -3.0390 -60.1130 90° East 158 182 1,200 -660 Descending FlightAware
12:02AM -3.0380 -60.0980 86° East 146 168 1,000 -660 Descending FlightAware
12:03AM -3.0390 -60.0810 93° East 145 167 700 -360 Descending FlightAware
12:03AM -3.0390 -60.0660 90° East 145 167 700  Level FlightAware
12:06AM -3.0386 -60.0497 89° East  Level Estimated
12:07AM -3.0386 -60.0497 225° Southwest  Level Estimated
12:08AM -3.0386 -60.0497 225° Southwest  Level Estimated
12:09AM -3.0386 -60.0497 225° Southwest  Level Estimated
12:10AM -3.0386 -60.0497 225° Southwest  Level Estimated
12:11AM -3.0386 -60.0497 225° Southwest  Level Estimated
12:12AM -3.0386 -60.0497 225° Southwest  Level Estimated
12:13AM -3.0386 -60.0497 225° Southwest  Level Estimated
12:14AM -3.0386 -60.0497 225° Southwest  Level Estimated
12:15AM -3.0386 -60.0497 225° Southwest  Level Estimated
12:16AM -3.0386 -60.0497 225° Southwest  Level Estimated